createdAt,value
2022-08-26T00:01:54.695Z,8.90
2022-08-26T00:04:23.902Z,9.55
2022-08-26T00:06:51.733Z,8.52
2022-08-26T00:09:18.735Z,8.82
2022-08-26T00:11:46.233Z,8.80
2022-08-26T00:14:14.765Z,9.32
2022-08-26T00:16:47.658Z,9.25
2022-08-26T00:19:16.314Z,8.48
2022-08-26T00:21:43.924Z,9.68
2022-08-26T00:24:10.835Z,8.82
2022-08-26T00:26:37.751Z,8.73
2022-08-26T00:29:05.153Z,8.88
2022-08-26T00:31:32.142Z,8.73
2022-08-26T00:33:59.615Z,8.30
2022-08-26T00:36:29.832Z,7.85
2022-08-26T00:38:58.806Z,8.82
2022-08-26T00:41:26.251Z,8.32
2022-08-26T00:43:54.009Z,8.50
2022-08-26T00:46:29.349Z,9.00
2022-08-26T00:49:11.927Z,9.05
2022-08-26T00:51:44.829Z,8.70
2022-08-26T00:54:13.285Z,9.90
2022-08-26T00:56:55.573Z,8.85
2022-08-26T00:59:23.890Z,8.38
2022-08-26T01:01:51.842Z,9.88
2022-08-26T01:04:22.672Z,9.85
2022-08-26T01:06:52.998Z,10.13
2022-08-26T01:09:21.435Z,9.15
2022-08-26T01:11:51.203Z,9.15
2022-08-26T01:14:20.872Z,9.88
2022-08-26T01:16:48.775Z,9.80
2022-08-26T01:19:51.517Z,9.55
2022-08-26T01:22:53.442Z,9.55
2022-08-26T01:25:21.878Z,9.52
2022-08-26T01:27:50.596Z,9.90
2022-08-26T01:30:18.049Z,9.48
2022-08-26T01:32:45.924Z,9.23
2022-08-26T01:35:13.108Z,8.52
2022-08-26T01:37:41.193Z,8.70
2022-08-26T01:40:16.938Z,10.35
2022-08-26T01:42:44.717Z,11.52
2022-08-26T01:45:34.911Z,10.07
2022-08-26T01:48:07.857Z,12.10
2022-08-26T01:50:36.504Z,10.93
2022-08-26T01:53:09.610Z,10.77
2022-08-26T01:55:39.407Z,9.90
2022-08-26T01:58:13.992Z,9.35
2022-08-26T02:03:17.600Z,9.50
2022-08-26T02:05:53.472Z,9.55
2022-08-26T02:08:28.438Z,9.73
2022-08-26T02:10:56.152Z,9.13
2022-08-26T02:13:26.896Z,9.32
2022-08-26T02:15:55.558Z,9.23
2022-08-26T02:18:23.340Z,10.13
2022-08-26T02:20:54.081Z,11.05
2022-08-26T02:23:21.074Z,11.48
2022-08-26T02:25:58.098Z,11.82
2022-08-26T02:28:28.391Z,12.88
2022-08-26T02:30:55.789Z,11.98
2022-08-26T02:33:22.855Z,12.50
2022-08-26T02:35:49.870Z,12.10
2022-08-26T02:38:17.641Z,12.00
2022-08-26T02:40:44.749Z,11.10
2022-08-26T02:43:12.737Z,11.10
2022-08-26T02:45:40.741Z,11.23
2022-08-26T02:48:20.129Z,11.70
2022-08-26T02:50:48.742Z,11.25
2022-08-26T02:53:16.746Z,11.50
2022-08-26T02:55:51.555Z,12.70
2022-08-26T02:58:18.632Z,12.30
2022-08-26T03:00:52.795Z,11.05
2022-08-26T03:03:23.462Z,11.45
2022-08-26T03:05:51.550Z,12.07
2022-08-26T03:08:18.907Z,12.18
2022-08-26T03:10:48.060Z,14.35
2022-08-26T03:13:16.401Z,14.63
2022-08-26T03:15:44.330Z,14.77
2022-08-26T03:18:13.434Z,16.40
2022-08-26T03:20:40.336Z,18.27
2022-08-26T03:23:08.153Z,18.17
2022-08-26T03:25:36.172Z,19.73
2022-08-26T03:28:03.678Z,19.83
2022-08-26T03:30:45.445Z,20.42
2022-08-26T03:33:14.283Z,20.98
2022-08-26T03:35:43.642Z,22.30
2022-08-26T03:38:11.230Z,22.10
2022-08-26T03:40:38.884Z,21.08
2022-08-26T03:43:09.666Z,23.85
2022-08-26T03:45:37.301Z,24.25
2022-08-26T03:48:04.972Z,24.95
2022-08-26T03:50:34.100Z,24.35
2022-08-26T03:53:01.905Z,26.88
2022-08-26T03:55:34.253Z,25.80
2022-08-26T03:58:02.207Z,27.30
2022-08-26T04:00:30.072Z,27.75
2022-08-26T04:02:57.452Z,32.17
2022-08-26T04:05:26.070Z,30.55
2022-08-26T04:07:55.366Z,32.00
2022-08-26T04:10:28.995Z,32.80
2022-08-26T04:15:27.327Z,38.95
2022-08-26T04:17:56.078Z,41.00
2022-08-26T04:20:24.668Z,39.22
2022-08-26T04:22:52.387Z,44.58
2022-08-26T04:25:20.468Z,47.50
2022-08-26T04:27:48.305Z,47.20
2022-08-26T04:30:15.980Z,49.75
2022-08-26T04:32:44.381Z,53.60
2022-08-26T04:35:11.719Z,56.47
2022-08-26T04:37:39.051Z,58.75
2022-08-26T04:40:11.074Z,59.83
2022-08-26T04:42:38.104Z,65.90
2022-08-26T04:45:10.240Z,66.57
2022-08-26T04:47:37.809Z,64.85
2022-08-26T04:50:06.260Z,74.85
2022-08-26T04:52:35.763Z,86.05
2022-08-26T04:55:02.678Z,88.63
2022-08-26T04:57:29.610Z,82.88
2022-08-26T04:59:56.620Z,86.32
2022-08-26T05:02:24.368Z,88.03
2022-08-26T05:04:52.571Z,100.82
2022-08-26T05:07:19.522Z,103.00
2022-08-26T05:09:46.704Z,109.10
2022-08-26T05:12:13.581Z,113.13
2022-08-26T05:14:41.587Z,116.90
2022-08-26T05:17:08.784Z,112.70
2022-08-26T05:19:37.306Z,116.85
2022-08-26T05:22:09.683Z,115.20
2022-08-26T05:24:36.667Z,117.13
2022-08-26T05:27:11.505Z,120.57
2022-08-26T05:32:06.695Z,123.95
2022-08-26T05:34:33.513Z,129.43
2022-08-26T05:37:00.451Z,132.98
2022-08-26T05:39:27.409Z,127.55
2022-08-26T05:41:54.281Z,126.95
2022-08-26T05:44:21.254Z,125.40
2022-08-26T05:46:49.735Z,128.63
2022-08-26T05:49:18.833Z,127.65
2022-08-26T05:51:47.726Z,124.70
2022-08-26T05:54:21.924Z,120.90
2022-08-26T05:56:50.868Z,127.65
2022-08-26T05:59:21.234Z,122.70
2022-08-26T06:01:52.251Z,116.45
2022-08-26T06:04:20.205Z,118.90
2022-08-26T06:06:47.538Z,117.38
2022-08-26T06:10:01.614Z,117.45
2022-08-26T06:12:38.318Z,120.05
2022-08-26T06:15:05.839Z,120.90
2022-08-26T06:17:32.859Z,114.25
2022-08-26T06:19:59.819Z,119.75
2022-08-26T06:22:46.787Z,114.38
2022-08-26T06:25:32.354Z,118.00
2022-08-26T06:27:59.334Z,118.97
2022-08-26T06:30:26.465Z,114.65
2022-08-26T06:32:53.806Z,114.63
2022-08-26T06:35:21.765Z,107.78
2022-08-26T06:37:48.655Z,112.05
2022-08-26T06:40:15.613Z,105.78
2022-08-26T06:42:42.576Z,106.18
2022-08-26T06:45:10.977Z,110.70
2022-08-26T06:47:38.283Z,111.05
2022-08-26T06:50:05.527Z,106.05
2022-08-26T06:52:32.545Z,103.47
2022-08-26T06:54:59.667Z,106.38
2022-08-26T06:57:26.763Z,106.40
2022-08-26T06:59:53.878Z,98.05
2022-08-26T07:02:20.926Z,102.38
2022-08-26T07:04:48.105Z,101.15
2022-08-26T07:07:18.374Z,100.25
2022-08-26T07:09:48.987Z,98.93
2022-08-26T07:12:19.870Z,101.05
2022-08-26T07:14:47.391Z,99.78
2022-08-26T07:17:16.008Z,102.43
2022-08-26T07:19:43.648Z,102.20
2022-08-26T07:22:11.154Z,94.40
2022-08-26T07:24:42.382Z,96.05
2022-08-26T07:27:13.462Z,100.55
2022-08-26T07:29:40.949Z,96.15
2022-08-26T07:32:10.093Z,102.53
2022-08-26T07:34:38.713Z,97.30
2022-08-26T07:37:06.025Z,95.75
2022-08-26T07:39:35.959Z,94.20
2022-08-26T07:42:07.825Z,90.30
2022-08-26T07:44:38.433Z,94.38
2022-08-26T07:47:10.101Z,93.97
2022-08-26T07:49:38.428Z,93.13
2022-08-26T07:52:06.120Z,94.65
2022-08-26T07:54:33.259Z,95.82
2022-08-26T07:57:00.164Z,91.50
2022-08-26T07:59:27.194Z,93.22
2022-08-26T08:01:54.098Z,89.47
2022-08-26T08:04:26.199Z,92.75
2022-08-26T08:06:54.102Z,89.45
2022-08-26T08:09:22.409Z,93.30
2022-08-26T08:11:50.055Z,89.55
2022-08-26T08:14:22.195Z,92.57
2022-08-26T08:16:51.113Z,89.95
2022-08-26T08:19:22.046Z,89.25
2022-08-26T08:21:49.180Z,85.93
2022-08-26T08:24:16.139Z,90.97
2022-08-26T08:26:43.252Z,85.13
2022-08-26T08:29:10.209Z,90.00
2022-08-26T08:31:56.534Z,82.50
2022-08-26T08:34:26.564Z,84.55
2022-08-26T08:36:54.255Z,86.28
2022-08-26T08:39:22.453Z,79.95
2022-08-26T08:42:06.138Z,75.47
2022-08-26T08:44:33.992Z,81.05
2022-08-26T08:47:20.088Z,83.60
2022-08-26T08:49:47.747Z,83.07
2022-08-26T08:52:36.259Z,85.25
2022-08-26T08:55:10.993Z,81.45
2022-08-26T08:57:42.455Z,77.55
2022-08-26T09:00:18.219Z,76.75
2022-08-26T09:03:01.868Z,74.57
2022-08-26T09:05:40.486Z,76.40
2022-08-26T09:08:22.910Z,79.78
2022-08-26T09:10:54.584Z,78.88
2022-08-26T09:13:25.212Z,75.53
2022-08-26T09:16:10.037Z,73.68
2022-08-26T09:18:55.600Z,75.18
2022-08-26T09:21:25.150Z,74.82
2022-08-26T09:23:56.637Z,74.07
2022-08-26T09:26:47.522Z,65.63
2022-08-26T09:29:23.071Z,64.90
2022-08-26T09:31:52.330Z,74.57
2022-08-26T09:34:27.788Z,73.03
2022-08-26T09:36:57.330Z,74.32
2022-08-26T09:39:24.144Z,66.97
2022-08-26T09:42:19.321Z,63.58
2022-08-26T09:44:57.667Z,67.07
2022-08-26T09:47:31.562Z,68.68
2022-08-26T09:50:19.844Z,67.47
2022-08-26T09:52:47.639Z,59.40
2022-08-26T09:55:22.990Z,62.92
2022-08-26T09:57:55.337Z,63.53
2022-08-26T10:00:25.713Z,62.15
2022-08-26T10:02:56.049Z,60.67
2022-08-26T10:05:40.733Z,61.90
2022-08-26T10:08:28.799Z,56.35
2022-08-26T10:10:59.100Z,55.72
2022-08-26T10:13:33.537Z,51.65
2022-08-26T10:16:10.851Z,53.47
2022-08-26T10:18:45.505Z,53.25
2022-08-26T10:21:25.025Z,47.05
2022-08-26T10:23:56.512Z,50.15
2022-08-26T10:26:47.085Z,46.22
2022-08-26T10:29:21.336Z,50.22
2022-08-26T10:31:55.400Z,44.28
2022-08-26T10:34:29.508Z,45.95
2022-08-26T10:37:16.244Z,44.60
2022-08-26T10:40:02.464Z,44.15
2022-08-26T10:42:37.578Z,41.72
2022-08-26T10:45:11.670Z,42.33
2022-08-26T10:47:54.478Z,43.60
2022-08-26T10:50:26.173Z,40.20
2022-08-26T10:52:58.412Z,40.75
2022-08-26T10:55:57.621Z,36.15
2022-08-26T10:59:10.373Z,30.60
2022-08-26T11:02:09.638Z,37.17
2022-08-26T11:04:48.162Z,34.50
2022-08-26T11:07:36.991Z,34.67
2022-08-26T11:10:19.207Z,35.17
2022-08-26T11:12:49.579Z,31.55
2022-08-26T11:15:26.889Z,30.88
2022-08-26T11:17:57.212Z,31.02
2022-08-26T11:20:30.124Z,33.50
2022-08-26T11:23:22.683Z,31.63
2022-08-26T11:25:56.965Z,31.05
2022-08-26T11:28:35.644Z,30.33
2022-08-26T11:31:04.618Z,29.52
2022-08-26T11:33:44.232Z,32.40
2022-08-26T11:36:28.135Z,32.13
2022-08-26T11:41:26.368Z,34.55
2022-08-26T11:43:53.435Z,31.35
2022-08-26T11:46:27.564Z,32.58
2022-08-26T11:49:06.796Z,30.40
2022-08-26T11:51:40.477Z,30.63
2022-08-26T11:54:14.553Z,29.38
2022-08-26T11:56:45.590Z,29.33
2022-08-26T11:59:18.184Z,27.50
2022-08-26T12:01:50.568Z,28.05
2022-08-26T12:04:37.975Z,21.92
2022-08-26T12:07:08.831Z,25.27
2022-08-26T12:09:40.434Z,24.60
2022-08-26T12:12:16.768Z,26.13
2022-08-26T12:14:44.879Z,24.40
2022-08-26T12:17:22.481Z,24.73
2022-08-26T12:19:49.747Z,29.25
2022-08-26T12:22:23.102Z,28.70
2022-08-26T12:24:54.396Z,28.38
2022-08-26T12:27:23.999Z,27.88
2022-08-26T12:30:01.301Z,32.35
2022-08-26T12:32:29.172Z,30.63
2022-08-26T12:34:56.627Z,30.17
2022-08-26T12:37:24.811Z,32.83
2022-08-26T12:39:51.791Z,29.45
2022-08-26T12:42:41.443Z,31.70
2022-08-26T12:45:09.145Z,33.35
2022-08-26T12:47:44.323Z,31.85
2022-08-26T12:50:20.346Z,33.33
2022-08-26T12:52:59.370Z,29.05
2022-08-26T12:55:37.482Z,31.98
2022-08-26T12:58:16.821Z,35.05
2022-08-26T13:00:46.299Z,31.38
2022-08-26T13:03:46.391Z,34.50
2022-08-26T13:06:22.499Z,31.13
2022-08-26T13:09:18.980Z,32.60
2022-08-26T13:11:45.927Z,29.55
2022-08-26T13:14:22.250Z,28.92
2022-08-26T13:16:52.622Z,28.80
2022-08-26T13:19:22.545Z,26.75
2022-08-26T13:21:55.543Z,27.65
2022-08-26T13:24:22.546Z,28.00
2022-08-26T13:26:50.393Z,28.42
2022-08-26T13:29:18.386Z,26.13
2022-08-26T13:31:46.546Z,25.45
2022-08-26T13:34:19.083Z,28.27
2022-08-26T13:36:50.564Z,25.70
2022-08-26T13:39:18.476Z,24.77
2022-08-26T13:41:45.596Z,27.27
2022-08-26T13:44:12.654Z,23.00
2022-08-26T13:46:40.086Z,20.05
2022-08-26T13:49:07.418Z,20.38
2022-08-26T13:51:34.358Z,20.40
2022-08-26T13:54:01.256Z,20.40
2022-08-26T13:56:32.460Z,22.35
2022-08-26T13:59:01.208Z,22.23
2022-08-26T14:01:29.866Z,20.08
2022-08-26T14:03:57.333Z,16.00
2022-08-26T14:06:25.422Z,15.70
2022-08-26T14:08:52.370Z,15.95
2022-08-26T14:11:19.906Z,16.83
2022-08-26T14:13:46.857Z,16.27
2022-08-26T14:16:26.343Z,14.93
2022-08-26T14:18:54.235Z,14.25
2022-08-26T14:21:21.664Z,16.10
2022-08-26T14:23:48.906Z,11.93
2022-08-26T14:26:28.352Z,13.68
2022-08-26T14:28:59.129Z,14.95
2022-08-26T14:31:30.789Z,15.82
2022-08-26T14:34:01.750Z,18.90
2022-08-26T14:36:28.818Z,17.15
2022-08-26T14:38:58.369Z,19.23
2022-08-26T14:41:26.079Z,22.05
2022-08-26T14:44:00.200Z,18.55
2022-08-26T14:46:34.138Z,24.13
2022-08-26T14:49:06.165Z,23.55
2022-08-26T14:51:34.650Z,22.38
2022-08-26T14:54:13.705Z,21.40
2022-08-26T14:56:46.863Z,20.33
2022-08-26T14:59:16.104Z,27.60
2022-08-26T15:01:43.981Z,24.10
2022-08-26T15:04:11.253Z,22.52
2022-08-26T15:06:38.687Z,24.88
2022-08-26T15:09:06.535Z,22.38
2022-08-26T15:11:33.894Z,20.63
2022-08-26T15:14:01.125Z,21.05
2022-08-26T15:16:29.409Z,17.58
2022-08-26T15:18:56.838Z,17.88
2022-08-26T15:21:24.314Z,18.90
2022-08-26T15:23:52.940Z,17.45
2022-08-26T15:26:20.895Z,21.35
2022-08-26T15:28:48.485Z,24.08
2022-08-26T15:31:16.018Z,24.05
2022-08-26T15:33:43.296Z,25.25
2022-08-26T15:36:10.339Z,22.23
2022-08-26T15:38:41.496Z,22.85
2022-08-26T15:41:14.785Z,23.83
2022-08-26T15:43:42.168Z,20.38
2022-08-26T15:46:13.247Z,21.45
2022-08-26T15:48:41.104Z,18.63
2022-08-26T15:51:18.589Z,17.52
2022-08-26T15:53:45.815Z,23.40
2022-08-26T15:56:13.359Z,20.45
2022-08-26T15:58:40.519Z,21.98
2022-08-26T16:01:08.651Z,23.13
2022-08-26T16:03:36.553Z,25.13
2022-08-26T16:06:03.971Z,26.00
2022-08-26T16:08:30.971Z,27.60
2022-08-26T16:11:04.724Z,25.80
2022-08-26T16:13:39.855Z,24.15
2022-08-26T16:16:08.440Z,22.77
2022-08-26T16:18:36.028Z,23.73
2022-08-26T16:21:13.264Z,23.25
2022-08-26T16:23:44.302Z,24.70
2022-08-26T16:26:15.467Z,25.00
2022-08-26T16:28:43.757Z,24.85
2022-08-26T16:31:11.251Z,26.60
2022-08-26T16:33:38.721Z,24.05
2022-08-26T16:36:06.489Z,24.80
2022-08-26T16:38:34.767Z,25.48
2022-08-26T16:41:02.691Z,25.08
2022-08-26T16:43:29.609Z,26.50
2022-08-26T16:45:56.941Z,26.73
2022-08-26T16:48:24.086Z,25.75
2022-08-26T16:50:51.713Z,24.02
2022-08-26T16:53:19.205Z,22.33
2022-08-26T16:55:47.799Z,20.90
2022-08-26T16:58:15.466Z,21.95
2022-08-26T17:00:42.656Z,19.17
2022-08-26T17:03:10.327Z,21.10
2022-08-26T17:05:38.013Z,19.40
2022-08-26T17:08:05.871Z,18.08
2022-08-26T17:10:33.241Z,19.05
2022-08-26T17:13:00.987Z,19.42
2022-08-26T17:15:28.692Z,19.15
2022-08-26T17:17:56.915Z,18.85
2022-08-26T17:20:25.694Z,19.30
2022-08-26T17:22:55.182Z,18.60
2022-08-26T17:25:26.453Z,19.98
2022-08-26T17:27:53.996Z,19.13
2022-08-26T17:30:22.727Z,17.17
2022-08-26T17:32:50.906Z,17.15
2022-08-26T17:35:19.488Z,16.95
2022-08-26T17:37:47.160Z,15.95
2022-08-26T17:40:18.432Z,15.90
2022-08-26T17:42:45.851Z,15.45
2022-08-26T17:45:13.446Z,15.07
2022-08-26T17:47:41.442Z,14.27
2022-08-26T17:50:12.456Z,13.88
2022-08-26T17:52:41.240Z,15.43
2022-08-26T17:55:13.904Z,14.75
2022-08-26T17:57:44.199Z,14.80
2022-08-26T18:00:23.390Z,15.23
2022-08-26T18:02:50.438Z,16.33
2022-08-26T18:05:18.239Z,16.45
2022-08-26T18:07:45.591Z,16.38
2022-08-26T18:10:16.203Z,17.80
2022-08-26T18:12:43.260Z,16.92
2022-08-26T18:15:11.907Z,15.73
2022-08-26T18:17:39.992Z,15.95
2022-08-26T18:20:12.894Z,15.05
2022-08-26T18:22:40.406Z,15.85
2022-08-26T18:25:08.590Z,15.88
2022-08-26T18:27:36.643Z,15.32
2022-08-26T18:30:13.478Z,14.75
2022-08-26T18:32:42.853Z,15.65
2022-08-26T18:35:10.549Z,15.13
2022-08-26T18:37:37.726Z,16.02
2022-08-26T18:40:07.413Z,15.18
2022-08-26T18:42:34.390Z,15.23
2022-08-26T18:45:01.302Z,15.32
2022-08-26T18:47:28.535Z,13.95
2022-08-26T18:49:55.518Z,15.77
2022-08-26T18:52:22.780Z,15.57
2022-08-26T18:54:51.025Z,14.45
2022-08-26T18:57:17.859Z,16.02
2022-08-26T18:59:45.151Z,14.13
2022-08-26T19:02:12.399Z,15.15
2022-08-26T19:04:39.640Z,13.75
2022-08-26T19:07:07.612Z,13.70
2022-08-26T19:09:36.038Z,15.13
2022-08-26T19:12:04.267Z,15.82
2022-08-26T19:14:32.700Z,13.93
2022-08-26T19:17:00.709Z,15.75
2022-08-26T19:19:27.678Z,15.25
2022-08-26T19:21:54.903Z,15.32
2022-08-26T19:24:21.904Z,15.80
2022-08-26T19:26:57.582Z,15.43
2022-08-26T19:29:29.509Z,15.15
2022-08-26T19:31:56.936Z,15.07
2022-08-26T19:34:25.144Z,15.23
2022-08-26T19:36:53.384Z,14.57
2022-08-26T19:39:21.467Z,14.70
2022-08-26T19:41:49.152Z,16.52
2022-08-26T19:44:38.115Z,15.13
2022-08-26T19:47:07.442Z,14.15
2022-08-26T19:49:35.001Z,14.65
2022-08-26T19:52:05.812Z,14.95
2022-08-26T19:54:33.391Z,14.32
2022-08-26T19:57:00.615Z,14.00
2022-08-26T19:59:27.673Z,15.68
2022-08-26T20:02:01.039Z,14.85
2022-08-26T20:06:57.584Z,14.30
2022-08-26T20:09:28.629Z,15.20
2022-08-26T20:12:02.972Z,14.57
2022-08-26T20:14:30.217Z,13.65
2022-08-26T20:16:57.366Z,13.55
2022-08-26T20:19:42.857Z,14.60
2022-08-26T20:22:10.577Z,13.85
2022-08-26T20:24:37.988Z,14.30
2022-08-26T20:27:09.295Z,13.88
2022-08-26T20:29:36.977Z,14.82
2022-08-26T20:32:06.163Z,15.38
2022-08-26T20:34:34.872Z,15.77
2022-08-26T20:37:02.927Z,15.82
2022-08-26T20:39:30.039Z,15.75
2022-08-26T20:41:58.307Z,15.10
2022-08-26T20:44:27.067Z,15.65
2022-08-26T20:46:53.960Z,14.73
2022-08-26T20:49:21.378Z,15.85
2022-08-26T20:51:52.538Z,14.45
2022-08-26T20:54:26.198Z,15.60
2022-08-26T20:56:56.658Z,14.45
2022-08-26T20:59:24.589Z,14.93
2022-08-26T21:01:51.665Z,15.00
2022-08-26T21:04:22.841Z,15.40
2022-08-26T21:06:52.822Z,15.32
2022-08-26T21:09:24.454Z,14.65
2022-08-26T21:11:55.392Z,14.38
2022-08-26T21:14:25.732Z,14.25
2022-08-26T21:16:53.714Z,13.25
2022-08-26T21:19:20.719Z,14.25
2022-08-26T21:21:49.568Z,13.25
2022-08-26T21:24:16.838Z,13.90
2022-08-26T21:26:44.063Z,13.05
2022-08-26T21:29:11.012Z,13.75
2022-08-26T21:31:44.885Z,14.32
2022-08-26T21:34:13.919Z,13.00
2022-08-26T21:36:40.811Z,12.80
2022-08-26T21:39:11.491Z,14.00
2022-08-26T21:41:39.766Z,12.95
2022-08-26T21:44:06.842Z,12.57
2022-08-26T21:46:37.496Z,13.93
2022-08-26T21:49:08.443Z,14.30
2022-08-26T21:51:38.758Z,14.57
2022-08-26T21:54:10.811Z,12.70
2022-08-26T21:56:41.073Z,13.43
2022-08-26T21:59:08.910Z,14.23
2022-08-26T22:01:38.754Z,12.98
2022-08-26T22:04:07.655Z,12.48
2022-08-26T22:06:42.314Z,14.43
2022-08-26T22:09:10.180Z,12.50
2022-08-26T22:11:40.946Z,15.32
2022-08-26T22:14:08.269Z,14.57
2022-08-26T22:16:35.188Z,14.50
2022-08-26T22:19:02.234Z,13.23
2022-08-26T22:21:29.347Z,14.20
2022-08-26T22:23:58.635Z,14.63
2022-08-26T22:26:28.895Z,13.27
2022-08-26T22:28:58.713Z,12.45
2022-08-26T22:31:37.049Z,13.65
2022-08-26T22:34:12.849Z,13.85
2022-08-26T22:36:43.932Z,13.15
2022-08-26T22:39:13.528Z,13.23
2022-08-26T22:41:43.169Z,13.13
2022-08-26T22:44:11.975Z,13.43
2022-08-26T22:46:40.365Z,12.50
2022-08-26T22:49:08.991Z,13.10
2022-08-26T22:51:35.996Z,13.60
2022-08-26T22:54:02.873Z,13.25
2022-08-26T22:56:30.132Z,14.55
2022-08-26T22:58:57.017Z,11.93
2022-08-26T23:01:24.113Z,13.07
2022-08-26T23:03:51.065Z,13.35
2022-08-26T23:06:18.010Z,13.35
2022-08-26T23:08:46.515Z,13.77
2022-08-26T23:11:15.161Z,12.98
2022-08-26T23:13:42.545Z,12.50
2022-08-26T23:16:12.590Z,12.10
2022-08-26T23:18:41.264Z,13.85
2022-08-26T23:21:09.240Z,13.30
2022-08-26T23:23:39.075Z,12.13
2022-08-26T23:26:08.441Z,12.60
2022-08-26T23:28:36.896Z,11.85
2022-08-26T23:31:04.310Z,13.07
2022-08-26T23:33:51.264Z,13.00
2022-08-26T23:36:23.011Z,13.23
2022-08-26T23:38:54.182Z,14.00
2022-08-26T23:41:24.610Z,15.00
2022-08-26T23:43:51.781Z,14.13
2022-08-26T23:46:19.301Z,15.00
2022-08-26T23:48:46.587Z,17.25
2022-08-26T23:51:32.005Z,16.23
2022-08-26T23:53:58.906Z,16.92
2022-08-26T23:56:26.723Z,18.02
2022-08-26T23:58:56.847Z,17.42
